AGROMETEOROLOŠKI PORTAL

Vinorodna pokrajina

Temelj dobrega kmetovanja.

Izpis lokacij s podatki meritev in opazovanj za vse lokacije

Vir: ARSO
Pregled minimalnih nočnih temperatur med 27.2.2024 od 22:00 in 28.2.2024 do 10:00 (zapri pregled)
Zahodna Slovenija
Lokacija Nadmorska višina Lega Višina meritve senzorja Datum in čas meritve Dosežena min. temperatura RH Veter (m/s) Temp. rosišča Temp. mokrega termometra
Bilje UVHVVR 55 m 2 m 28.2.2024 01:30 9,3 100,0 9,3 9,3
Čelje 496 m V 2 m 27.2.2024 23:00 7,5 88,6 5,8 6,6
Dragonja 34 m S 2 m 27.2.2024 23:30 11,3 86,2 9,1 10,1
Dutovlje 316 m J 2 m 28.2.2024 01:30 8,1 84,6 5,7 6,9
Komen 269 m J 2 m 28.2.2024 00:30 9,6 84,8 7,2 8,4
Kozana 182 m S 2 m 28.2.2024 01:00 10,5 83,5 5,6 7,8 9,1
Miren. 47 m S 2 m 28.2.2024 01:30 9,1 100,0 0,8 9,1 9,1
Potoče 75 m 2 m 28.2.2024 00:30 10,6 75,6 6,5 8,5
Pradisiol 3 m S 2 m 28.2.2024 01:30 9,1 96,2 8,5 8,8
Puče 275 m J 2 m 27.2.2024 23:30 12,2 73,5 1,3 7,6 9,8
Purisima 50 m J 2 m 27.2.2024 22:30 12,8 68,9 7,3 9,9
Slap 112 m 2 m 28.2.2024 01:30 10,2 78,3 1,6 6,6 8,4
Sužid 231 m 2 m 28.2.2024 01:00 7,0 99,9 7,0 7,0
Šlovrenc 92 m JZ 2 m 28.2.2024 01:30 10,3 88,5 8,5 9,3
Truške 230 m 2 m 27.2.2024 23:00 11,6 73,5 7,0 9,2
Vipolže 59 m 2 m 28.2.2024 01:30 10,5 80,4 3,4 7,3 8,8
Višnjevik 223 m V 2 m 28.2.2024 01:30 9,1 91,9 7,9 8,5
Vogrsko 62 m 2 m 28.2.2024 01:30 9,0 99,5 1,2 8,9 9,0
Zavrhek 340 m J 2 m 28.2.2024 00:00 5,1 96,0 4,5 4,8
Ajdovščina 83 m 2 m 27.2.2024 22:00 12,5 70,0 6,4 7,2 9,7
BILJE ARSO 55 m 2 m 28.2.2024 01:00 9,4 94,0 1,1 8,5 8,9
BILJE ARSO 55 m 5 cm 27.2.2024 23:30 8,9 91,0 1,1 7,5 8,2
Bovec - letališče ARSO 438 m 2 m 28.2.2024 00:30 5,8 96,0 1,4 5,2 5,5
GODNJE ARSO 315 m 2 m 27.2.2024 22:00 8,8 84,0 1,7 6,3 7,6
Ilirska Bistrica - Koseze ARSO 415 m 2 m 28.2.2024 01:00 6,0 95,0 2,2 5,3 5,6
KUBED ARSO 236 m 2 m 28.2.2024 00:00 8,8 86,0 6,6 7,7
PODNANOS - ARSO 153 m 2 m 28.2.2024 00:30 10,1 85,0 2,5 7,7 8,8
Portorož-letališče ARSO 0 m 2 m 28.2.2024 01:00 11,0 82,0 1,1 8,1 9,5
POSTOJNA ARSO 534 m 2 m 27.2.2024 22:00 7,1 91,0 7,2 5,7 6,4
ŠKOCJAN ARSO 420 m 2 m 27.2.2024 22:00 8,1 86,0 1,7 5,9 7,0
VEDRIJAN ARSO 228 m 2 m 28.2.2024 01:00 10,0 79,0 6,5 8,3
ZADLOG - ARSO 716 m 2 m 27.2.2024 22:00 5,8 96,0 5,2 5,5
Beneša - Ankaran (ZRSKP) 62 m 2 m 28.2.2024 01:00 11,6 68,1 2,4 5,9 8,7
Mala Seva - Izola (ZRSKP) 90 m 2 m 27.2.2024 23:00 11,4 72,2 2,3 6,6 8,9
Marezeige - Koper (ZRS) 189 m J 2 m 27.2.2024 22:30 10,1 80,3 0,4 6,9 8,5
Semedela - Markovec (ZRSKP) 149 m 2 m 27.2.2024 23:30 10,7 72,5 2,3 6,0 8,3
Kapelski vrh DRSI 285 m 2 m 27.2.2024 22:00 9,0 7,0 2,2 -24,8 0,5
Kobarid DRSI 242 m 2 m 27.2.2024 22:00 8,0 1,0 0,8 -44,8 -0,7
Koper DRSI 5 m 2 m 28.2.2024 01:00 12,0 88,0 1,1 10,1 10,9
Lazaret DRSI 2 m 2 m 27.2.2024 22:00 14,0 68,0 5,6 8,2 10,9
Valeta DRSI 100 m 2 m 27.2.2024 22:30 12,4 72,0 1,4 7,5 9,8
Cerovo 157 m 2 m 28.2.2024 01:30 10,2 84,1 7,6 8,9
Hruševlje 105 m 2 m 28.2.2024 01:30 10,1 87,7 8,2 9,1
Plešivo 109 m 2 m 28.2.2024 01:30 9,6 94,1 0,7 8,7 9,1
Osrednja Slovenija
Lokacija Nadmorska višina Lega Višina meritve senzorja Datum in čas meritve Dosežena min. temperatura RH Veter (m/s) Temp. rosišča Temp. mokrega termometra
Borovnica 288 m 2 m 28.2.2024 01:30 6,3 99,9 0,8 6,3 6,3
Brdo pri Lukovici 368 m J 2 m 28.2.2024 00:00 6,1 99,9 6,1 6,1
Češnjevek (Cerklje) 405 m S 2 m 28.2.2024 00:30 6,7 100,0 1,3 6,7 6,7
Gabrska Gora 487 m 2 m 28.2.2024 01:00 5,3 100,0 5,3 5,3
Jablje 302 m S 2 m 28.2.2024 01:30 5,8 100,0 0,0 5,8 5,8
Jablje 302 m S 20 cm 28.2.2024 01:30 4,9 100,0 0,0 4,9 4,9
Kamnik 377 m JV 2 m 28.2.2024 01:30 6,7 99,9 6,7 6,7
Kovor 514 m 2 m 28.2.2024 01:30 6,1 94,6 5,3 5,7
Kovor 514 m 20 cm 28.2.2024 01:30 6,0 94,6 5,2 5,6
Ljubljana KIS 297 m S 2 m 28.2.2024 01:30 6,8 97,3 6,4 6,6
Podbrezje 456 m JV 2 m 28.2.2024 00:00 6,3 100,0 6,3 6,3
Resje 503 m 2 m 28.2.2024 00:30 5,9 92,9 4,8 5,4
Šentjakob 279 m 20 cm 28.2.2024 01:00 5,3 100,0 5,3 5,3
Šentjakob 279 m 2 m 28.2.2024 01:30 5,9 100,0 5,9 5,9
Žabnica (Dorfarje) 372 m 2 m 28.2.2024 00:30 6,6 100,0 0,0 6,6 6,6
BOHINJSKA ČEŠNJICA - ARSO 596 m 2 m 27.2.2024 22:30 5,2 97,0 4,8 5,0
BORŠT PRI GORENJI VASI ARSO 532 m 2 m 28.2.2024 00:30 6,3 98,0 0,8 6,0 6,2
BRNIK - LETALIŠČE - ARSO 364 m 2 m 28.2.2024 01:00 6,7 96,0 1,7 6,1 6,4
Lesce 515 m 2 m 27.2.2024 23:00 6,3 86,0 5,6 4,1 5,3
LITIJA ARSO 263 m 2 m 28.2.2024 00:30 7,2 96,0 6,6 6,9
Ljubljana - Bežigrad ARSO 299 m 2 m 28.2.2024 01:00 6,9 95,0 1,4 6,2 6,5
LOGATEC - ARSO 486 m 2 m 28.2.2024 00:30 6,6 97,0 6,2 6,4
NOVA VAS - BLOKE - ARSO 718 m 2 m 27.2.2024 22:00 5,6 92,0 4,4 5,0
VRHNIKA ARSO 367 m 2 m 28.2.2024 01:00 7,0 97,0 0,8 6,6 6,8
Jeprca DRSI 360 m 2 m 28.2.2024 01:00 6,4 99,0 0,6 6,3 6,3
Kranj - Delavski most DRSI 380 m 2 m 27.2.2024 23:00 7,6 92,0 1,6 6,4 7,0
Krtina 1 DRSI 308 m 2 m 27.2.2024 22:00 7,0 100,0 0,3 7,0 7,0
Moste pri Komendi DRSI 331 m 2 m 27.2.2024 23:00 8,0 100,0 0,8 8,0 8,0
Podvin DRSI 489 m 2 m 27.2.2024 22:00 5,0 100,0 3,3 5,0 5,0
Celjska in Koroška regija
Lokacija Nadmorska višina Lega Višina meritve senzorja Datum in čas meritve Dosežena min. temperatura RH Veter (m/s) Temp. rosišča Temp. mokrega termometra
Bistrica ob Sotli 324 m J 2 m 28.2.2024 00:00 7,6 96,2 7,0 7,3
Braslovče (Pšaker) 322 m JV 2 m 28.2.2024 01:00 5,7 100,0 0,6 5,7 5,7
Črnova (Gradišnik) 453 m JZ 2 m 27.2.2024 23:30 5,8 100,0 5,8 5,8
Gabernik-Rogaška 379 m JZ 2 m 28.2.2024 00:30 6,8 92,0 5,6 6,2
Kasaze (Mirosan) 279 m S 2 m 27.2.2024 23:30 7,2 96,3 1,4 6,7 6,9
Latkova vas 279 m S 2 m 28.2.2024 01:00 6,5 100,0 2,8 6,5 6,5
Ojstriška vas 308 m Z 2 m 28.2.2024 01:30 6,0 99,8 6,0 6,0
Radlje ob Dravi 352 m 2 m 28.2.2024 01:30 5,3 100,0 5,3 5,3
Slom 279 m S 2 m 28.2.2024 00:30 6,9 100,0 6,9 6,9
Slovenske Konjice 377 m 2 m 27.2.2024 23:00 7,2 92,0 6,0 6,6
Škofja vas 246 m 2 m 28.2.2024 01:00 5,5 99,8 1,0 5,5 5,5
Virštanj 368 m S 2 m 28.2.2024 00:30 7,3 96,9 6,8 7,1
Žalec (PDC) 254 m S 2 m 28.2.2024 01:00 7,0 100,0 1,4 7,0 7,0
Celje - Medlog ARSO 241 m S 2 m 28.2.2024 00:30 6,2 94,0 3,3 5,3 5,8
PODČETRTEK - ATOMSKE TOPLICE ARSO 201 m 2 m 28.2.2024 01:00 7,6 94,0 2,2 6,7 7,2
RAVNE NA KOROŠKEM - ARSO 394 m 2 m 27.2.2024 23:30 5,7 95,0 1,1 5,0 5,3
ROGAŠKA SLATINA ARSO 289 m 2 m 28.2.2024 00:30 7,3 97,0 1,7 6,9 7,1
SLOVENSKE KONJICE ARSO 315 m 2 m 27.2.2024 23:00 7,7 90,0 6,2 6,9
ŠMARTNO PRI SLOVENJ GRADCU ARSO 442 m 2 m 28.2.2024 01:00 5,1 98,0 0,8 4,8 5,0
ŠMARTNO PRI SLOVENJ GRADCU ARSO 442 m 5 cm 28.2.2024 00:30 3,8 98,0 0,8 3,5 3,7
Črnova DRSI 304 m 2 m 28.2.2024 01:00 5,8 92,0 0,7 4,6 5,2
Podplat DRSI 230 m 2 m 28.2.2024 01:00 6,8 95,0 0,8 6,1 6,4
Radlje DRSI 355 m 2 m 27.2.2024 23:00 5,6 97,0 1,2 5,2 5,4
Rimske Toplice DRSI 210 m 2 m 27.2.2024 23:30 7,0 91,0 0,5 5,6 6,3
Jugovzhodna Slovenija
Lokacija Nadmorska višina Lega Višina meritve senzorja Datum in čas meritve Dosežena min. temperatura RH Veter (m/s) Temp. rosišča Temp. mokrega termometra
Artiče 201 m J 2 m 28.2.2024 01:30 6,5 99,9 6,5 6,5
Bizeljsko 347 m J 2 m 28.2.2024 00:30 8,1 85,7 5,9 7,0
Blanca 278 m JZ 2 m 28.2.2024 01:00 7,0 100,0 7,0 7,0
Črnomelj 253 m JZ 2 m 28.2.2024 01:30 7,8 90,8 6,4 7,1
Drašiči 244 m J 2 m 27.2.2024 23:00 7,5 98,3 7,3 7,4
Kostanjevica na Krki 165 m 2 m 28.2.2024 01:30 6,0 100,0 6,0 6,0
Mali Podlog (Krško) 158 m 2 m 28.2.2024 01:30 6,8 99,4 1,0 6,7 6,8
Otočec 198 m J 2 m 28.2.2024 01:30 6,2 97,4 5,8 6,0
Rodine pri Trebnjem APS 284 m J 2 m 28.2.2024 01:30 6,0 98,8 1,1 5,8 5,9
Sremič 466 m JZ 2 m 28.2.2024 00:00 6,8 98,1 6,5 6,7
Šentjernej APS 231 m JV 2 m 28.2.2024 00:00 6,8 100,0 1,3 6,8 6,8
CERKLJE - LETALIŠČE ARSO 155 m 2 m 28.2.2024 00:30 6,4 97,0 1,4 6,0 6,2
ČRNOMELJ - DOBLIČE ARSO 155 m 2 m 28.2.2024 00:30 6,7 96,0 0,8 6,1 6,4
HOČKO POHORJE - ARSO 585 m 2 m 27.2.2024 22:00 7,8 94,0 6,9 7,4
KRŠKO - NEK ARSO 155 m 2 m 28.2.2024 01:00 6,7 100,0 1,4 6,7 6,7
MALKOVEC ARSO 397 m 2 m 28.2.2024 01:00 6,4 97,0 1,9 6,0 6,2
METLIKA ARSO 166 m 2 m 27.2.2024 23:00 6,7 96,0 6,1 6,4
NOVO MESTO ARSO 220 m 2 m 28.2.2024 01:00 6,0 96,0 1,7 5,4 5,7
NOVO MESTO ARSO 220 m 5 cm 28.2.2024 00:30 5,2 96,0 1,7 4,6 4,9
TREBNJE ARSO 303 m 2 m 28.2.2024 01:00 5,8 98,0 5,5 5,7
Elbl-2 DRSI 314 m 2 m 27.2.2024 22:00 9,0 100,0 1,4 9,0 9,0
Krško DRSI 167 m 2 m 28.2.2024 00:00 7,0 83,0 0,0 4,3 5,7
Miklavž DRSI 257 m 2 m 27.2.2024 23:30 4,0 90,0 1,1 2,5 3,3
Trebnje DRSI 270 m 2 m 28.2.2024 00:30 6,1 88,0 0,4 4,3 5,2
Severovzhodna Slovenija
Lokacija Nadmorska višina Lega Višina meritve senzorja Datum in čas meritve Dosežena min. temperatura RH Veter (m/s) Temp. rosišča Temp. mokrega termometra
Dravinjski vrh 304 m Z 2 m 28.2.2024 01:00 6,7 100,0 1,0 6,7 6,7
Gačnik METOS 297 m 2 m 28.2.2024 01:30 6,4 99,9 6,4 6,4
Godemarci 212 m JV 2 m 28.2.2024 01:30 5,1 99,2 5,0 5,1
Godemarci 212 m JV 50 cm 28.2.2024 01:30 5,0 99,2 4,9 5,0
Litmerk - bionomija in RLP 314 m JZ 2 m 28.2.2024 01:30 6,9 96,6 6,4 6,7
Maribor - BTŠ 276 m J 2 m 28.2.2024 00:00 7,4 91,2 2,7 6,1 6,7
Meranovo 501 m JV 2 m 27.2.2024 22:30 5,5 95,8 4,9 5,2
Moškanjci 213 m 2 m 28.2.2024 01:30 5,2 95,1 1,3 4,5 4,9
Pohorski dvor 313 m V 2 m 28.2.2024 00:30 6,4 97,7 6,1 6,2
Ritoznoj 402 m JV 2 m 28.2.2024 00:30 6,9 99,9 6,9 6,9
Savci 245 m JZ 2 m 28.2.2024 01:30 5,1 95,0 4,4 4,8
Selnica ob Dravi 311 m SV 2 m 28.2.2024 00:30 6,8 96,0 2,0 6,2 6,5
Selo 299 m J 2 m 28.2.2024 00:00 8,5 87,6 6,6 7,5
Stročja vas 240 m SV 2 m 28.2.2024 01:00 7,7 91,6 1,1 6,4 7,1
Špičnik 338 m 2 m 28.2.2024 01:30 6,4 100,0 6,4 6,4
Vidonci 337 m JV 2 m 27.2.2024 23:00 6,8 99,6 6,7 6,8
Vitomarci 299 m SV 2 m 28.2.2024 01:30 6,9 96,9 6,4 6,7
Zbigovci - RLP 299 m Z 2 m 28.2.2024 01:30 7,4 93,1 6,4 6,9
Zimica 296 m Z 2 m 27.2.2024 23:30 7,7 89,9 6,2 6,9
GAČNIK ARSO 291 m 2 m 28.2.2024 01:00 6,8 91,0 0,8 5,4 6,1
JERUZALEM - ARSO 335 m 2 m 28.2.2024 01:00 7,2 91,0 5,8 6,5
LENDAVA - TERME ARSO 161 m 2 m 28.2.2024 01:00 7,0 94,0 1,4 6,1 6,6
MARIBOR - LETALIŠČE ARSO 264 m 2 m 28.2.2024 01:00 6,9 95,0 2,8 6,2 6,5
MARIBOR - VRBANSKI PLATO ARSO 274 m 2 m 28.2.2024 00:30 7,5 89,0 6,4 5,8 6,7
MARINČA VAS - ARSO 272 m 2 m 28.2.2024 01:00 5,9 97,0 5,5 5,7
MURSKA SOBOTA - RAKIČAN ARSO 184 m 2 m 28.2.2024 01:00 6,7 94,0 2,8 5,8 6,3
MURSKA SOBOTA - RAKIČAN ARSO 184 m 5 cm 28.2.2024 01:00 6,1 94,0 2,8 5,2 5,7
PTUJ - ARSO 222 m 2 m 28.2.2024 01:00 6,6 94,0 0,6 5,7 6,2
SOTINSKI BREG ARSO 415 m 2 m 28.2.2024 00:00 7,8 92,0 3,9 6,6 7,2
Šentilj DRSI 300 m 2 m 27.2.2024 22:00 7,0 95,0 0,8 6,3 6,6
Postaje, katerih podatke prikazujemo na portalu, so postaje proizvajalca Adcon Telemetry in Pessl (UVHVVR/MKGP), postaje ARSO in postaje DRSI.

IZJAVA O OMEJITVI ODGOVORNOSTI: Uprava Republike Slovenije za varno hrano, veterinarstvo in varstvo rastlin (Uprava) skupaj z Opazovalno napovedovalno službo zdravstvenega varstva rastlin skrbi za nemoteno delovanje in vzdrževanje meteoroloških podatkov iz mreže agrometeoroloških postaj (Adcon Telemety). Agrometeorološki podatki, ki so objavljeni na tej strani, so zgolj informativne narave. Za morebitne vsebinske napake, do katerih lahko pride zaradi tehničnih težav pri vzdrževanju mreže, napak merilne opreme ali drugih nepredvidljivih vzrokov, napak pri vnosu, posodabljanja vsebin, Uprava ne prevzema odgovornosti, kakor tudi ne zaradi nepravilnega delovanja in/ali nedostopnosti vsebine teh spletnih strani. Uprava tudi ne prevzema odgovornosti za kakršnokoli neposredno ali posredno izgubo oziroma škodo, materialno in nematerialno, ki bi nastala zaradi dostopa, uporabe ali odločitve, sprejete na podlagi informacij, objavljenih na teh spletnih straneh, kakor tudi ne zaradi nepravilnega delovanja in/ali nedostopnosti vsebine teh spletnih strani. Uprava si pridržuje pravico do spremembe oziroma umika vsebine, deloma ali v celoti, brez predhodne najave. Vsak poskus nepooblaščenega spreminjanja ali poškodovanja spletnih strani, kot tudi nepooblaščen dostop do informacij mimo spletnih strani in do drugih vsebin, je kaznivo dejanje. Pri uporabi vsebin, objavljenih na portalu, je potrebno navesti vir podatkov (UVHVVR, Agrometeorološki portal Slovenije) in upoštevati avtorske pravice.